createdAt,value
2022-08-16T00:01:24.486Z,95929.75
2022-08-16T00:03:54.141Z,95930.25
2022-08-16T00:06:22.504Z,95928.63
2022-08-16T00:08:52.382Z,95943.22
2022-08-16T00:11:21.828Z,95941.63
2022-08-16T00:13:53.587Z,95942.06
2022-08-16T00:17:06.560Z,95934.47
2022-08-16T00:19:13.987Z,95938.97
2022-08-16T00:21:42.938Z,95938.38
2022-08-16T00:24:11.511Z,95941.06
2022-08-16T00:26:43.782Z,95942.06
2022-08-16T00:29:15.663Z,95948.09
2022-08-16T00:32:00.112Z,95932.59
2022-08-16T00:34:52.315Z,95937.91
2022-08-16T00:37:24.498Z,95934.00
2022-08-16T00:39:56.986Z,95939.41
2022-08-16T00:42:30.285Z,95945.50
2022-08-16T00:45:06.328Z,95943.00
2022-08-16T00:47:37.914Z,95943.97
2022-08-16T00:50:11.734Z,95933.25
2022-08-16T00:52:50.202Z,95946.97
2022-08-16T00:55:20.950Z,95946.41
2022-08-16T00:57:59.827Z,95945.94
2022-08-16T01:00:31.313Z,95943.56
2022-08-16T01:03:02.534Z,95942.72
2022-08-16T01:05:33.079Z,95949.56
2022-08-16T01:08:02.551Z,95960.69
2022-08-16T01:10:51.276Z,95966.63
2022-08-16T01:13:22.577Z,95962.88
2022-08-16T01:15:53.721Z,95963.41
2022-08-16T01:18:40.171Z,95971.47
2022-08-16T01:21:22.914Z,95969.84
2022-08-16T01:24:53.626Z,95970.69
2022-08-16T01:27:11.307Z,95973.66
2022-08-16T01:29:59.092Z,95970.91
2022-08-16T01:32:31.849Z,95970.91
2022-08-16T01:35:01.931Z,95965.22
2022-08-16T01:37:35.578Z,95976.28
2022-08-16T01:40:07.149Z,95972.50
2022-08-16T01:42:35.416Z,95972.47
2022-08-16T01:45:03.312Z,95957.47
2022-08-16T01:47:33.105Z,95964.72
2022-08-16T01:50:43.240Z,95958.53
2022-08-16T01:52:49.313Z,95958.00
2022-08-16T01:55:19.834Z,95965.56
2022-08-16T01:57:53.887Z,95963.97
2022-08-16T02:00:29.349Z,95952.59
2022-08-16T02:02:57.736Z,95928.47
2022-08-16T02:05:25.517Z,95955.84
2022-08-16T02:07:58.936Z,95952.06
2022-08-16T02:10:28.554Z,95949.38
2022-08-16T02:13:00.674Z,95947.78
2022-08-16T02:15:31.085Z,95938.63
2022-08-16T02:18:08.434Z,95937.03
2022-08-16T02:20:42.622Z,95945.06
2022-08-16T02:23:13.094Z,95948.34
2022-08-16T02:25:52.027Z,95944.63
2022-08-16T02:28:23.388Z,95949.97
2022-08-16T02:30:52.205Z,95942.72
2022-08-16T02:33:25.017Z,95948.38
2022-08-16T02:36:14.176Z,95946.47
2022-08-16T02:38:57.209Z,95951.31
2022-08-16T02:41:26.419Z,95940.31
2022-08-16T02:43:54.294Z,95938.41
2022-08-16T02:46:30.223Z,95937.63
2022-08-16T02:49:01.926Z,95931.69
2022-08-16T02:51:31.404Z,95905.63
2022-08-16T02:53:59.733Z,95921.69
2022-08-16T02:56:32.167Z,95912.81
2022-08-16T02:59:00.459Z,95917.34
2022-08-16T03:01:37.141Z,95917.09
2022-08-16T03:04:39.926Z,95916.59
2022-08-16T03:06:56.374Z,95913.34
2022-08-16T03:09:25.070Z,95915.72
2022-08-16T03:11:54.223Z,95898.28
2022-08-16T03:14:24.990Z,95910.38
2022-08-16T03:16:59.522Z,95902.56
2022-08-16T03:19:47.307Z,95906.91
2022-08-16T03:22:19.503Z,95895.84
2022-08-16T03:24:57.571Z,95899.34
2022-08-16T03:27:31.396Z,95890.19
2022-08-16T03:30:02.512Z,95894.25
2022-08-16T03:32:45.048Z,95887.00
2022-08-16T03:35:17.918Z,95893.94
2022-08-16T03:38:02.753Z,95900.44
2022-08-16T03:40:33.565Z,95906.09
2022-08-16T03:43:20.236Z,95906.34
2022-08-16T03:45:52.725Z,95905.84
2022-08-16T03:48:36.379Z,95904.75
2022-08-16T03:51:09.868Z,95899.59
2022-08-16T03:53:41.106Z,95895.03
2022-08-16T03:56:19.803Z,95899.34
2022-08-16T03:58:52.707Z,95888.91
2022-08-16T04:01:21.163Z,95899.94
2022-08-16T04:03:50.130Z,95890.75
2022-08-16T04:06:18.321Z,95892.91
2022-08-16T04:08:46.064Z,95892.41
2022-08-16T04:11:16.560Z,95889.16
2022-08-16T04:14:01.562Z,95888.09
2022-08-16T04:16:34.541Z,95890.78
2022-08-16T04:19:04.209Z,95896.44
2022-08-16T04:21:32.980Z,95878.91
2022-08-16T04:24:01.077Z,95890.78
2022-08-16T04:26:31.159Z,95878.94
2022-08-16T04:29:16.761Z,95873.03
2022-08-16T04:31:56.422Z,95890.75
2022-08-16T04:34:28.291Z,95893.97
2022-08-16T04:36:57.679Z,95892.41
2022-08-16T04:39:45.830Z,95899.13
2022-08-16T04:42:13.964Z,95892.41
2022-08-16T04:44:57.491Z,95902.41
2022-08-16T04:47:31.386Z,95902.06
2022-08-16T04:50:00.153Z,95912.81
2022-08-16T04:52:34.454Z,95909.59
2022-08-16T04:55:06.135Z,95911.75
2022-08-16T04:57:33.968Z,95918.19
2022-08-16T05:00:30.266Z,95913.78
2022-08-16T05:02:55.970Z,95915.69
2022-08-16T05:05:24.625Z,95914.34
2022-08-16T05:07:59.519Z,95910.28
2022-08-16T05:10:29.467Z,95912.41
2022-08-16T05:12:57.758Z,95913.72
2022-08-16T05:15:25.937Z,95912.56
2022-08-16T05:17:59.751Z,95916.59
2022-08-16T05:20:38.507Z,95909.28
2022-08-16T05:23:19.379Z,95908.00
2022-08-16T05:25:49.091Z,95906.81
2022-08-16T05:28:17.371Z,95911.84
2022-08-16T05:30:50.418Z,95898.88
2022-08-16T05:33:21.309Z,95908.22
2022-08-16T05:35:55.678Z,95907.50
2022-08-16T05:38:32.516Z,95907.41
2022-08-16T05:41:09.521Z,95908.69
2022-08-16T05:43:43.683Z,95919.53
2022-08-16T05:46:30.057Z,95917.13
2022-08-16T05:49:08.682Z,95924.28
2022-08-16T05:51:38.668Z,95924.91
2022-08-16T05:54:09.641Z,95918.06
2022-08-16T05:56:39.636Z,95919.47
2022-08-16T05:59:08.463Z,95922.69
2022-08-16T06:01:38.210Z,95926.28
2022-08-16T06:04:13.793Z,95918.88
2022-08-16T06:06:57.791Z,95919.88
2022-08-16T06:09:43.364Z,95904.97
2022-08-16T06:12:27.400Z,95915.78
2022-08-16T06:14:59.159Z,95912.41
2022-08-16T06:17:41.498Z,95920.91
2022-08-16T06:20:18.518Z,95920.09
2022-08-16T06:22:58.609Z,95929.00
2022-08-16T06:25:36.808Z,95930.38
2022-08-16T06:28:16.850Z,95922.28
2022-08-16T06:30:58.049Z,95917.41
2022-08-16T06:33:29.300Z,95921.03
2022-08-16T06:36:09.578Z,95930.13
2022-08-16T06:38:37.563Z,95925.59
2022-08-16T06:41:06.920Z,95923.16
2022-08-16T06:43:42.004Z,95927.00
2022-08-16T06:46:21.983Z,95923.75
2022-08-16T06:48:51.864Z,95921.53
2022-08-16T06:51:21.236Z,95932.00
2022-08-16T06:53:52.677Z,95928.38
2022-08-16T06:56:23.371Z,95929.44
2022-08-16T06:58:53.068Z,95933.38
2022-08-16T07:01:44.319Z,95927.44
2022-08-16T07:04:11.208Z,95934.63
2022-08-16T07:06:43.089Z,95926.97
2022-08-16T07:09:12.550Z,95930.63
2022-08-16T07:11:46.517Z,95910.22
2022-08-16T07:14:24.415Z,95929.19
2022-08-16T07:16:55.754Z,95922.50
2022-08-16T07:20:04.035Z,95919.47
2022-08-16T07:22:37.246Z,95912.47
2022-08-16T07:25:05.305Z,95933.72
2022-08-16T07:27:33.891Z,95928.47
2022-08-16T07:30:46.055Z,95929.34
2022-08-16T07:32:55.483Z,95926.00
2022-08-16T07:35:23.788Z,95930.63
2022-08-16T07:37:53.310Z,95924.16
2022-08-16T07:40:36.867Z,95931.25
2022-08-16T07:43:09.510Z,95936.22
2022-08-16T07:45:37.442Z,95939.38
2022-08-16T07:48:11.419Z,95946.78
2022-08-16T07:50:57.299Z,95947.22
2022-08-16T07:53:29.531Z,95942.75
2022-08-16T07:55:58.533Z,95948.19
2022-08-16T07:58:33.704Z,95949.69
2022-08-16T08:01:05.696Z,95947.31
2022-08-16T08:03:42.548Z,95950.38
2022-08-16T08:06:13.380Z,95941.38
2022-08-16T08:08:51.178Z,95950.09
2022-08-16T08:11:21.804Z,95944.06
2022-08-16T08:13:52.658Z,95949.91
2022-08-16T08:16:22.223Z,95958.38
2022-08-16T08:19:01.228Z,95949.81
2022-08-16T08:22:01.327Z,95951.34
2022-08-16T08:24:23.019Z,95939.19
2022-08-16T08:27:02.137Z,95951.63
2022-08-16T08:29:37.517Z,95945.31
2022-08-16T08:32:57.789Z,95958.69
2022-08-16T08:34:55.732Z,95946.66
2022-08-16T08:37:28.327Z,95951.16
2022-08-16T08:40:18.560Z,95949.53
2022-08-16T08:42:48.078Z,95948.28
2022-08-16T08:45:43.093Z,95942.50
2022-08-16T08:48:06.498Z,95954.06
2022-08-16T08:50:34.273Z,95962.41
2022-08-16T08:53:02.896Z,95961.13
2022-08-16T08:55:36.289Z,95966.06
2022-08-16T08:58:04.182Z,95960.59
2022-08-16T09:00:32.289Z,95954.50
2022-08-16T09:03:18.384Z,95955.78
2022-08-16T09:05:50.912Z,95954.00
2022-08-16T09:08:19.191Z,95953.09
2022-08-16T09:10:58.870Z,95948.84
2022-08-16T09:13:33.086Z,95954.59
2022-08-16T09:16:01.329Z,95956.09
2022-08-16T09:18:35.779Z,95958.59
2022-08-16T09:21:09.520Z,95952.75
2022-08-16T09:23:37.965Z,95951.25
2022-08-16T09:26:44.925Z,95946.41
2022-08-16T09:29:16.983Z,95943.28
2022-08-16T09:31:47.288Z,95939.56
2022-08-16T09:34:21.444Z,95933.50
2022-08-16T09:36:49.253Z,95938.56
2022-08-16T09:39:22.320Z,95936.19
2022-08-16T09:41:53.398Z,95933.53
2022-08-16T09:45:12.574Z,95933.97
2022-08-16T09:47:11.659Z,95936.25
2022-08-16T09:49:41.010Z,95940.84
2022-08-16T09:52:10.721Z,95943.06
2022-08-16T09:54:44.637Z,95934.69
2022-08-16T09:57:14.554Z,95933.22
2022-08-16T09:59:43.325Z,95936.22
2022-08-16T10:02:26.426Z,95938.97
2022-08-16T10:04:57.184Z,95946.50
2022-08-16T10:07:44.122Z,95934.56
2022-08-16T10:10:13.365Z,95925.16
2022-08-16T10:13:05.979Z,95936.09
2022-08-16T10:15:33.845Z,95927.97
2022-08-16T10:18:45.260Z,95928.59
2022-08-16T10:20:50.926Z,95933.03
2022-08-16T10:23:20.203Z,95926.59
2022-08-16T10:27:17.692Z,95921.94
2022-08-16T10:28:39.658Z,95923.84
2022-08-16T10:31:12.076Z,95927.09
2022-08-16T10:33:42.630Z,95931.63
2022-08-16T10:36:13.167Z,95931.94
2022-08-16T10:39:00.921Z,95925.56
2022-08-16T10:41:30.018Z,95932.25
2022-08-16T10:43:59.298Z,95926.72
2022-08-16T10:46:40.097Z,95920.19
2022-08-16T10:49:10.933Z,95924.03
2022-08-16T10:52:01.716Z,95928.75
2022-08-16T10:54:29.793Z,95929.19
2022-08-16T10:56:59.175Z,95925.72
2022-08-16T10:59:39.106Z,95937.22
2022-08-16T11:03:37.433Z,95924.50
2022-08-16T11:05:08.344Z,95923.72
2022-08-16T11:07:45.213Z,95925.31
2022-08-16T11:16:25.442Z,95910.22
2022-08-16T11:19:04.503Z,95917.28
2022-08-16T11:22:22.595Z,95919.66
2022-08-16T11:24:42.711Z,95917.56
2022-08-16T11:27:23.442Z,95916.09
2022-08-16T11:29:55.299Z,95921.38
2022-08-16T11:32:31.443Z,95909.25
2022-08-16T11:35:13.895Z,95903.72
2022-08-16T11:40:37.749Z,95902.19
2022-08-16T11:43:06.860Z,95901.56
2022-08-16T11:45:38.337Z,95897.91
2022-08-16T11:48:08.430Z,95902.75
2022-08-16T11:50:36.572Z,95895.00
2022-08-16T11:53:08.386Z,95900.09
2022-08-16T11:55:38.390Z,95894.84
2022-08-16T11:58:07.352Z,95894.78
2022-08-16T12:00:51.909Z,95887.56
2022-08-16T12:03:34.561Z,95889.31
2022-08-16T12:06:11.294Z,95882.78
2022-08-16T12:08:57.502Z,95876.44
2022-08-16T12:11:28.958Z,95882.16
2022-08-16T12:14:00.014Z,95881.25
2022-08-16T12:16:31.027Z,95872.97
2022-08-16T12:19:00.242Z,95876.19
2022-08-16T12:21:57.790Z,95875.78
2022-08-16T12:24:15.827Z,95873.00
2022-08-16T12:26:44.227Z,95876.38
2022-08-16T12:29:12.057Z,95864.69
2022-08-16T12:32:00.711Z,95874.03
2022-08-16T12:34:29.398Z,95875.66
2022-08-16T12:36:57.505Z,95876.72
2022-08-16T12:39:28.926Z,95871.81
2022-08-16T12:41:57.648Z,95870.91
2022-08-16T12:44:27.108Z,95873.41
2022-08-16T12:47:16.622Z,95865.22
2022-08-16T12:49:45.715Z,95855.91
2022-08-16T12:52:34.268Z,95857.09
2022-08-16T12:55:02.392Z,95850.66
2022-08-16T12:57:36.395Z,95845.41
2022-08-16T13:00:07.213Z,95843.75
2022-08-16T13:02:36.359Z,95849.41
2022-08-16T13:05:08.159Z,95850.97
2022-08-16T13:07:42.418Z,95858.13
2022-08-16T13:10:21.269Z,95844.25
2022-08-16T13:13:05.606Z,95845.03
2022-08-16T13:15:36.268Z,95851.66
2022-08-16T13:18:24.123Z,95847.03
2022-08-16T13:20:57.074Z,95840.22
2022-08-16T13:23:25.851Z,95839.66
2022-08-16T13:25:54.866Z,95834.31
2022-08-16T13:28:23.005Z,95831.88
2022-08-16T13:30:53.564Z,95834.13
2022-08-16T13:33:29.889Z,95826.97
2022-08-16T13:36:01.568Z,95822.63
2022-08-16T13:38:35.207Z,95825.13
2022-08-16T13:41:08.437Z,95824.59
2022-08-16T13:43:37.963Z,95816.63
2022-08-16T13:46:06.681Z,95822.72
2022-08-16T13:48:42.867Z,95823.38
2022-08-16T13:51:16.639Z,95821.47
2022-08-16T13:53:45.835Z,95810.25
2022-08-16T13:56:24.953Z,95810.72
2022-08-16T13:58:54.298Z,95806.94
2022-08-16T14:01:23.642Z,95818.13
2022-08-16T14:03:54.660Z,95811.63
2022-08-16T14:06:24.955Z,95809.41
2022-08-16T14:09:06.444Z,95801.53
2022-08-16T14:11:35.981Z,95784.50
2022-08-16T14:14:05.489Z,95800.25
2022-08-16T14:16:34.826Z,95800.09
2022-08-16T14:19:03.455Z,95802.09
2022-08-16T14:21:34.920Z,95797.97
2022-08-16T14:24:08.162Z,95797.59
2022-08-16T14:26:52.656Z,95783.34
2022-08-16T14:29:21.187Z,95790.44
2022-08-16T14:31:53.838Z,95791.56
2022-08-16T14:34:25.704Z,95785.59
2022-08-16T14:36:55.003Z,95790.84
2022-08-16T14:39:23.321Z,95797.00
2022-08-16T14:41:53.674Z,95782.16
2022-08-16T14:44:24.172Z,95787.50
2022-08-16T14:46:54.027Z,95786.22
2022-08-16T14:49:21.724Z,95788.63
2022-08-16T14:51:49.539Z,95781.09
2022-08-16T14:54:18.752Z,95784.78
2022-08-16T14:56:54.705Z,95781.72
2022-08-16T14:59:23.361Z,95784.66
2022-08-16T15:01:59.767Z,95781.22
2022-08-16T15:04:32.410Z,95778.16
2022-08-16T15:07:17.611Z,95776.53
2022-08-16T15:10:00.432Z,95773.13
2022-08-16T15:12:33.421Z,95777.50
2022-08-16T15:15:04.526Z,95782.78
2022-08-16T15:17:54.111Z,95782.41
2022-08-16T15:20:26.121Z,95778.38
2022-08-16T15:22:54.911Z,95773.50
2022-08-16T15:25:29.497Z,95777.81
2022-08-16T15:27:58.795Z,95771.09
2022-08-16T15:30:58.015Z,95769.91
2022-08-16T15:33:20.251Z,95765.97
2022-08-16T15:35:50.666Z,95762.59
2022-08-16T15:38:56.901Z,95762.69
2022-08-16T15:41:07.717Z,95772.31
2022-08-16T15:43:40.053Z,95769.22
2022-08-16T15:46:54.305Z,95765.84
2022-08-16T15:49:12.697Z,95767.59
2022-08-16T15:51:43.594Z,95760.84
2022-08-16T15:54:21.408Z,95764.25
2022-08-16T15:57:11.642Z,95766.19
2022-08-16T15:59:48.568Z,95767.44
2022-08-16T16:02:27.539Z,95772.91
2022-08-16T16:04:57.687Z,95772.59
2022-08-16T16:07:29.993Z,95769.81
2022-08-16T16:09:58.888Z,95767.56
2022-08-16T16:15:18.490Z,95766.84
2022-08-16T16:17:50.659Z,95770.31
2022-08-16T16:20:19.328Z,95758.22
2022-08-16T16:22:47.700Z,95759.53
2022-08-16T16:25:15.879Z,95763.56
2022-08-16T16:27:46.616Z,95761.50
2022-08-16T16:30:37.579Z,95750.28
2022-08-16T16:33:20.715Z,95761.34
2022-08-16T16:35:55.680Z,95761.31
2022-08-16T16:38:28.488Z,95756.56
2022-08-16T16:40:55.979Z,95758.97
2022-08-16T16:43:31.899Z,95760.09
2022-08-16T16:46:01.964Z,95759.72
2022-08-16T16:48:34.970Z,95755.41
2022-08-16T16:51:09.131Z,95750.56
2022-08-16T16:53:41.453Z,95747.09
2022-08-16T16:56:19.529Z,95749.78
2022-08-16T16:59:01.000Z,95742.09
2022-08-16T17:01:56.535Z,95747.22
2022-08-16T17:04:27.369Z,95735.72
2022-08-16T17:06:59.987Z,95746.69
2022-08-16T17:09:27.735Z,95742.06
2022-08-16T17:11:56.011Z,95745.06
2022-08-16T17:14:32.329Z,95738.75
2022-08-16T17:17:01.749Z,95737.50
2022-08-16T17:19:31.677Z,95737.78
2022-08-16T17:21:59.679Z,95727.50
2022-08-16T17:24:31.439Z,95721.16
2022-08-16T17:27:08.184Z,95730.56
2022-08-16T17:29:45.873Z,95737.34
2022-08-16T17:32:46.634Z,95717.03
2022-08-16T17:35:10.232Z,95732.00
2022-08-16T17:37:48.773Z,95740.69
2022-08-16T17:40:46.997Z,95742.88
2022-08-16T17:43:20.442Z,95739.78
2022-08-16T17:45:50.299Z,95742.53
2022-08-16T17:48:19.637Z,95747.13
2022-08-16T17:50:47.339Z,95750.31
2022-08-16T17:53:16.275Z,95731.16
2022-08-16T17:55:47.713Z,95749.16
2022-08-16T17:58:22.242Z,95754.19
2022-08-16T18:00:55.871Z,95732.41
2022-08-16T18:04:07.480Z,95747.31
2022-08-16T18:06:18.453Z,95754.34
2022-08-16T18:08:49.005Z,95758.81
2022-08-16T18:11:24.231Z,95751.00
2022-08-16T18:13:54.521Z,95756.47
2022-08-16T18:16:24.138Z,95769.31
2022-08-16T18:18:51.838Z,95764.75
2022-08-16T18:21:37.114Z,95763.13
2022-08-16T18:24:05.395Z,95768.78
2022-08-16T18:26:33.103Z,95769.31
2022-08-16T18:29:01.082Z,95772.94
2022-08-16T18:31:30.179Z,95770.66
2022-08-16T18:33:58.015Z,95768.19
2022-08-16T18:36:26.328Z,95770.88
2022-08-16T18:38:54.863Z,95757.53
2022-08-16T18:41:25.786Z,95775.44
2022-08-16T18:44:22.276Z,95776.72
2022-08-16T18:46:44.886Z,95778.41
2022-08-16T18:49:17.754Z,95783.66
2022-08-16T18:51:46.148Z,95789.31
2022-08-16T18:54:16.284Z,95781.47
2022-08-16T18:56:55.775Z,95784.34
2022-08-16T18:59:25.145Z,95784.50
2022-08-16T19:01:59.650Z,95789.47
2022-08-16T19:04:55.938Z,95793.16
2022-08-16T19:07:16.319Z,95792.41
2022-08-16T19:09:44.251Z,95793.50
2022-08-16T19:12:11.970Z,95788.63
2022-08-16T19:14:44.233Z,95788.34
2022-08-16T19:17:13.435Z,95796.22
2022-08-16T19:19:41.158Z,95791.06
2022-08-16T19:22:08.870Z,95787.50
2022-08-16T19:24:36.618Z,95796.38
2022-08-16T19:27:10.060Z,95798.31
2022-08-16T19:29:37.819Z,95796.28
2022-08-16T19:32:05.646Z,95804.75
2022-08-16T19:34:34.727Z,95797.06
2022-08-16T19:37:02.455Z,95802.88
2022-08-16T19:39:32.687Z,95795.78
2022-08-16T19:42:12.823Z,95794.91
2022-08-16T19:44:42.791Z,95797.97
2022-08-16T19:47:11.630Z,95789.88
2022-08-16T19:49:41.268Z,95800.50
2022-08-16T19:52:14.210Z,95792.94
2022-08-16T19:54:42.111Z,95795.78
2022-08-16T19:57:10.667Z,95794.78
2022-08-16T19:59:40.915Z,95794.47
2022-08-16T20:02:32.579Z,95789.69
2022-08-16T20:05:06.550Z,95782.44
2022-08-16T20:07:34.328Z,95786.00
2022-08-16T20:10:02.468Z,95783.81
2022-08-16T20:12:30.182Z,95795.69
2022-08-16T20:14:59.182Z,95795.34
2022-08-16T20:17:27.142Z,95803.06
2022-08-16T20:19:54.899Z,95806.56
2022-08-16T20:22:52.622Z,95806.09
2022-08-16T20:25:20.659Z,95802.56
2022-08-16T20:27:56.860Z,95777.44
2022-08-16T20:30:25.479Z,95799.84
2022-08-16T20:32:54.223Z,95801.13
2022-08-16T20:35:25.407Z,95808.81
2022-08-16T20:37:54.896Z,95809.44
2022-08-16T20:40:34.036Z,95808.00
2022-08-16T20:43:06.366Z,95806.09
2022-08-16T20:45:34.918Z,95797.88
2022-08-16T20:48:02.874Z,95797.53
2022-08-16T20:50:30.588Z,95800.75
2022-08-16T20:53:00.294Z,95810.47
2022-08-16T20:55:29.055Z,95805.97
2022-08-16T20:57:56.819Z,95801.19
2022-08-16T21:00:24.830Z,95806.47
2022-08-16T21:02:52.618Z,95804.75
2022-08-16T21:05:24.039Z,95807.78
2022-08-16T21:07:52.653Z,95810.97
2022-08-16T21:10:23.738Z,95816.41
2022-08-16T21:12:54.497Z,95823.47
2022-08-16T21:15:23.615Z,95828.53
2022-08-16T21:17:51.558Z,95833.28
2022-08-16T21:20:22.180Z,95826.00
2022-08-16T21:22:54.954Z,95828.03
2022-08-16T21:25:25.179Z,95815.81
2022-08-16T21:28:41.999Z,95827.41
2022-08-16T21:30:41.187Z,95835.25
2022-08-16T21:33:11.956Z,95830.56
2022-08-16T21:35:40.968Z,95833.19
2022-08-16T21:38:30.239Z,95830.97
2022-08-16T21:40:59.615Z,95834.00
2022-08-16T21:43:32.190Z,95829.97
2022-08-16T21:46:00.875Z,95832.59
2022-08-16T21:48:33.629Z,95833.69
2022-08-16T21:51:03.985Z,95823.09
2022-08-16T21:53:31.746Z,95826.59
2022-08-16T21:56:01.653Z,95826.94
2022-08-16T21:58:29.714Z,95841.94
2022-08-16T22:00:58.035Z,95841.13
2022-08-16T22:03:26.027Z,95838.41
2022-08-16T22:06:13.560Z,95834.88
2022-08-16T22:08:48.043Z,95827.31
2022-08-16T22:11:20.486Z,95840.06
2022-08-16T22:13:51.324Z,95835.75
2022-08-16T22:16:26.465Z,95826.50
2022-08-16T22:18:54.163Z,95835.16
2022-08-16T22:21:21.993Z,95836.59
2022-08-16T22:23:55.194Z,95839.63
2022-08-16T22:26:29.697Z,95841.81
2022-08-16T22:29:00.046Z,95825.88
2022-08-16T22:31:27.790Z,95842.66
2022-08-16T22:33:56.626Z,95851.38
2022-08-16T22:36:28.125Z,95853.13
2022-08-16T22:38:58.073Z,95847.78
2022-08-16T22:41:28.723Z,95855.72
2022-08-16T22:43:56.687Z,95854.78
2022-08-16T22:46:24.422Z,95850.34
2022-08-16T22:48:52.580Z,95845.22
2022-08-16T22:51:22.389Z,95840.50
2022-08-16T22:53:50.182Z,95848.25
2022-08-16T22:56:17.955Z,95850.03
2022-08-16T22:58:47.970Z,95846.97
2022-08-16T23:01:18.291Z,95843.88
2022-08-16T23:03:46.083Z,95846.03
2022-08-16T23:06:14.682Z,95841.53
2022-08-16T23:08:44.921Z,95841.53
2022-08-16T23:11:19.377Z,95836.84
2022-08-16T23:13:53.086Z,95843.63
2022-08-16T23:16:22.820Z,95842.63
2022-08-16T23:18:53.341Z,95837.47
2022-08-16T23:21:21.866Z,95835.78
2022-08-16T23:23:50.596Z,95841.47
2022-08-16T23:26:45.407Z,95834.13
2022-08-16T23:29:16.048Z,95823.00
2022-08-16T23:31:55.037Z,95810.38
2022-08-16T23:34:23.298Z,95809.13
2022-08-16T23:36:51.066Z,95814.69
2022-08-16T23:39:18.754Z,95816.59
2022-08-16T23:41:46.503Z,95811.16
2022-08-16T23:44:57.430Z,95819.00
2022-08-16T23:47:04.086Z,95825.78
2022-08-16T23:49:56.185Z,95812.34
2022-08-16T23:52:48.583Z,95830.88
2022-08-16T23:55:08.853Z,95831.44
2022-08-16T23:57:37.439Z,95824.63
